Time;durP1;ratioP1;P1;durP2;ratioP2;P2;SDS_P1;SDS_P2;PMS_P1;PMS_P2;Temp;Humidity;BMP_temperature;BMP_pressure;BME280_temperature;BME280_humidity;BME280_pressure;Samples;Min_cycle;Max_cycle;Signal;HPM_P1;HPM_P2
2022/02/04 00:22:39;;;;;;;54.48;30.88;;;;;;;4.32;81.74;100697.14;1718208;83;20999;-84
2022/02/04 00:24:33;;;;;;;64.00;31.85;;;;;;;4.36;81.87;100692.17;1714338;83;21487;-84
2022/02/04 00:27:07;;;;;;;56.42;30.88;;;;;;;4.38;81.76;100687.93;1718173;83;22404;-83
2022/02/04 00:29:35;;;;;;;53.45;30.62;;;;;;;4.38;81.74;100684.02;1717027;83;20991;-84
2022/02/04 00:32:03;;;;;;;64.77;31.68;;;;;;;4.36;81.72;100682.17;1717112;83;21010;-85
2022/02/04 00:34:33;;;;;;;61.73;33.83;;;;;;;4.38;81.77;100681.41;1717079;83;21012;-85
2022/02/04 00:37:08;;;;;;;59.25;31.25;;;;;;;4.40;81.82;100682.80;1695590;83;21644;-85
2022/02/04 00:39:28;;;;;;;56.75;29.98;;;;;;;4.41;81.76;100678.97;1691242;84;21727;-84
2022/02/04 00:41:52;;;;;;;52.75;30.95;;;;;;;4.40;81.79;100675.86;1692632;84;20981;-84
2022/02/04 00:44:23;;;;;;;58.33;31.30;;;;;;;4.42;81.83;100675.95;1693129;84;21044;-84
2022/02/04 00:49:25;;;;;;;54.93;30.77;;;;;;;4.39;81.73;100678.39;1693094;84;21040;-84
2022/02/04 00:54:21;;;;;;;52.05;30.50;;;;;;;4.33;81.76;100675.08;1692992;84;21450;-84
2022/02/04 01:13:35;;;;;;;52.00;28.98;;;;;;;4.35;82.03;100656.91;1692885;84;21145;-84
2022/02/04 01:26:57;;;;;;;47.48;27.82;;;;;;;4.36;82.21;100638.75;1693200;84;21134;-84
2022/02/04 01:29:29;;;;;;;50.15;28.52;;;;;;;4.38;82.24;100638.41;1693217;84;21012;-84
2022/02/04 01:31:53;;;;;;;44.67;26.65;;;;;;;4.39;82.23;100634.09;1692769;84;21717;-83
2022/02/04 01:34:19;;;;;;;45.20;26.37;;;;;;;4.36;82.17;100628.75;1693190;84;21024;-84
2022/02/04 01:36:46;;;;;;;42.75;26.85;;;;;;;4.33;82.17;100633.38;1693012;84;20957;-84
2022/02/04 01:39:13;;;;;;;43.25;27.27;;;;;;;4.34;82.24;100630.39;1693174;84;21021;-84
2022/02/04 01:41:40;;;;;;;40.35;24.95;;;;;;;4.32;82.25;100631.62;1693273;84;20992;-85
2022/02/04 01:44:25;;;;;;;42.40;25.40;;;;;;;4.33;82.32;100632.50;1693251;84;22394;-83
2022/02/04 01:46:53;;;;;;;39.60;24.32;;;;;;;4.32;82.34;100630.31;1673562;84;21060;-83
2022/02/04 01:49:19;;;;;;;36.35;22.77;;;;;;;4.33;82.39;100625.98;1693074;84;21000;-83
2022/02/04 01:51:46;;;;;;;41.77;24.05;;;;;;;4.34;82.47;100625.18;1693263;84;20980;-84
2022/02/04 01:54:13;;;;;;;37.58;23.60;;;;;;;4.34;82.43;100622.16;1693221;84;21012;-83
2022/02/04 01:56:43;;;;;;;34.60;22.35;;;;;;;4.35;82.43;100624.34;1693184;84;21723;-83
2022/02/04 01:59:08;;;;;;;34.48;23.30;;;;;;;4.33;82.45;100616.45;1692863;84;21037;-83
2022/02/04 02:01:35;;;;;;;36.33;24.25;;;;;;;4.33;82.47;100620.35;1693059;84;21000;-83
2022/02/04 02:04:04;;;;;;;35.63;22.35;;;;;;;4.34;82.51;100613.45;1693101;84;21044;-82
2022/02/04 02:06:52;;;;;;;34.92;21.82;;;;;;;4.34;82.54;100623.45;1693126;84;21000;-83
2022/02/04 02:09:16;;;;;;;33.02;21.35;;;;;;;4.36;82.62;100617.02;1692739;84;22694;-83
2022/02/04 02:11:43;;;;;;;30.90;20.52;;;;;;;4.36;82.57;100618.33;1693060;84;21046;-84
2022/02/04 02:14:13;;;;;;;26.85;18.02;;;;;;;4.37;82.67;100609.25;1693210;84;21040;-84
2022/02/04 02:44:15;;;;;;;31.33;19.33;;;;;;;4.42;82.77;100595.16;1693151;84;21518;-83
2022/02/04 02:47:04;;;;;;;28.12;17.50;;;;;;;4.42;82.83;100599.06;1691675;84;21514;-83
2022/02/04 02:49:46;;;;;;;27.15;17.65;;;;;;;4.44;82.90;100593.52;1690258;84;21679;-83
2022/02/04 02:52:10;;;;;;;26.23;17.52;;;;;;;4.43;82.90;100593.93;1689965;84;21067;-83
2022/02/04 02:54:59;;;;;;;26.60;17.62;;;;;;;4.45;82.93;100597.50;1691628;84;20964;-82
2022/02/04 03:02:20;;;;;;;25.82;17.05;;;;;;;4.47;83.08;100590.64;1693043;84;21725;-83
2022/02/04 03:04:47;;;;;;;28.73;17.27;;;;;;;4.50;83.07;100593.79;1692925;84;20965;-83
2022/02/04 03:07:14;;;;;;;23.90;16.57;;;;;;;4.50;83.03;100589.00;1692941;84;20996;-83
2022/02/04 03:09:41;;;;;;;27.10;17.80;;;;;;;4.50;83.08;100590.30;1692997;84;21091;-82
2022/02/04 03:12:08;;;;;;;27.70;17.30;;;;;;;4.50;83.04;100586.39;1693074;84;21483;-81
2022/02/04 03:14:35;;;;;;;25.55;17.30;;;;;;;4.52;83.10;100595.17;1693003;84;21706;-83
2022/02/04 03:17:04;;;;;;;30.35;19.12;;;;;;;4.53;83.10;100596.55;1693105;84;21627;-84
2022/02/04 03:19:31;;;;;;;26.80;16.60;;;;;;;4.52;83.08;100602.98;1693024;84;21008;-84
2022/02/04 03:22:03;;;;;;;29.15;18.67;;;;;;;4.54;83.11;100598.73;1693177;84;21506;-84
2022/02/04 03:24:28;;;;;;;26.75;17.73;;;;;;;4.55;83.15;100596.63;1692783;84;21052;-84
2022/02/04 03:26:59;;;;;;;28.60;16.93;;;;;;;4.54;83.04;100602.64;1693201;84;22526;-85
2022/02/04 03:29:28;;;;;;;24.00;16.32;;;;;;;4.54;83.16;100598.73;1692445;84;21282;-83
2022/02/04 03:31:56;;;;;;;26.68;16.48;;;;;;;4.60;83.25;100597.74;1692451;84;20985;-83
2022/02/04 03:34:20;;;;;;;25.17;15.75;;;;;;;4.62;83.24;100593.07;1692630;84;21534;-83
2022/02/04 03:36:47;;;;;;;26.93;16.73;;;;;;;4.65;83.20;100594.53;1696216;83;21008;-83
2022/02/04 03:39:14;;;;;;;27.27;15.93;;;;;;;4.67;83.16;100599.40;1700651;84;21772;-84
2022/02/04 03:41:40;;;;;;;26.50;16.75;;;;;;;4.68;83.02;100598.98;1700402;84;21509;-84
2022/02/04 03:44:07;;;;;;;24.20;16.20;;;;;;;4.69;83.09;100596.83;1700589;84;21075;-84
2022/02/04 03:46:34;;;;;;;24.27;16.93;;;;;;;4.71;83.05;100602.13;1700448;84;21010;-84
2022/02/04 03:49:00;;;;;;;26.37;17.02;;;;;;;4.71;82.96;100601.73;1700520;84;20953;-84
2022/02/04 03:51:29;;;;;;;29.05;17.52;;;;;;;4.70;82.98;100602.97;1700221;84;21008;-84
2022/02/04 03:53:55;;;;;;;26.93;17.10;;;;;;;4.71;82.97;100603.05;1700458;84;20993;-83
2022/02/04 03:56:22;;;;;;;23.90;16.57;;;;;;;4.73;83.04;100606.61;1700411;84;20999;-84
2022/02/04 03:58:49;;;;;;;25.02;16.17;;;;;;;4.74;82.99;100599.67;1700350;84;21036;-82
2022/02/04 04:01:16;;;;;;;23.65;15.78;;;;;;;4.75;82.95;100593.23;1700515;84;21011;-85
2022/02/04 04:03:43;;;;;;;21.82;15.18;;;;;;;4.75;82.92;100587.09;1700575;84;21723;-84
2022/02/04 04:06:13;;;;;;;22.62;15.98;;;;;;;4.76;82.89;100588.90;1700226;84;21036;-83
2022/02/04 04:08:40;;;;;;;24.37;15.15;;;;;;;4.76;82.97;100588.48;1700469;84;21001;-83
2022/02/04 04:11:06;;;;;;;24.50;15.95;;;;;;;4.79;83.02;100591.66;1700542;84;21467;-83
2022/02/04 04:13:33;;;;;;;23.60;14.98;;;;;;;4.82;83.09;100593.08;1700515;84;21449;-84
2022/02/04 04:16:00;;;;;;;26.62;15.48;;;;;;;4.83;83.10;100587.94;1700484;84;21878;-84
2022/02/04 04:18:27;;;;;;;23.77;15.70;;;;;;;4.84;83.13;100587.52;1700357;84;20995;-84
2022/02/04 04:20:53;;;;;;;24.98;15.88;;;;;;;4.84;83.13;100583.61;1700417;84;21008;-85
2022/02/04 04:23:20;;;;;;;25.48;14.78;;;;;;;4.83;83.20;100582.72;1700497;84;21036;-84
2022/02/04 04:25:47;;;;;;;25.80;15.30;;;;;;;4.83;83.21;100583.14;1700678;84;21000;-84
2022/02/04 04:28:14;;;;;;;26.93;16.82;;;;;;;4.86;83.29;100588.09;1700643;84;21763;-84
2022/02/04 04:30:41;;;;;;;28.45;16.37;;;;;;;4.86;83.22;100576.73;1700670;84;21028;-85
2022/02/04 04:33:10;;;;;;;24.12;15.83;;;;;;;4.87;83.23;100570.72;1700646;84;20980;-84
2022/02/04 04:35:36;;;;;;;30.45;17.07;;;;;;;4.87;83.24;100570.72;1700301;84;21049;-85
2022/02/04 04:38:33;;;;;;;30.12;17.23;;;;;;;4.86;83.17;100567.61;1694097;83;20993;-85
2022/02/04 04:40:59;;;;;;;28.27;17.20;;;;;;;4.84;83.14;100574.09;1687707;84;21726;-85
2022/02/04 04:43:19;;;;;;;29.90;17.60;;;;;;;4.86;83.26;100570.22;1689882;84;21439;-84
2022/02/04 05:29:32;;;;;;;44.10;22.60;;;;;;;4.86;83.62;100569.83;1683229;85;21024;-85
2022/02/04 05:31:58;;;;;;;40.48;21.40;;;;;;;4.89;83.55;100569.48;1682702;83;20999;-84
2022/02/04 05:34:24;;;;;;;39.30;21.95;;;;;;;4.87;83.57;100561.17;1683262;85;21888;-83
2022/02/04 05:37:00;;;;;;;46.35;23.20;;;;;;;4.91;83.55;100556.10;1679847;85;21017;-85
2022/02/04 05:39:26;;;;;;;42.15;21.50;;;;;;;4.91;83.46;100558.71;1667053;85;21001;-85
2022/02/04 05:41:51;;;;;;;42.48;21.55;;;;;;;4.90;83.56;100559.13;1627573;85;22171;-85
2022/02/04 05:44:18;;;;;;;45.60;22.90;;;;;;;4.91;83.50;100562.20;1673293;85;21068;-84
2022/02/04 05:47:04;;;;;;;39.70;21.17;;;;;;;4.90;83.36;100567.34;1673433;85;21660;-91
2022/02/04 05:57:20;;;;;;;35.70;19.65;;;;;;;4.82;83.31;100551.35;1608443;88;21208;-90
2022/02/04 06:02:45;;;;;;;35.05;18.75;;;;;;;4.80;83.41;100548.67;1623981;88;21513;-88
2022/02/04 06:05:14;;;;;;;36.20;19.57;;;;;;;4.77;83.35;100544.64;1625309;87;21483;-93
2022/02/04 06:23:46;;;;;;;;;;;;;;;;;;;;;
2022/02/04 06:26:40;;;;;;;;;;;;;;;;;;;;;
2022/02/04 06:29:08;;;;;;;37.15;20.35;;;;;;;4.69;83.53;100549.91;1579364;88;20969;-96
2022/02/04 06:35:47;;;;;;;32.73;18.27;;;;;;;4.68;83.68;100545.53;1581644;90;21103;-96
2022/02/04 06:41:31;;;;;;;33.23;17.75;;;;;;;4.76;83.82;100550.67;1539480;86;80094;-85
2022/02/04 06:44:02;;;;;;;33.55;18.23;;;;;;;4.78;83.85;100557.27;1614857;88;21018;-85
2022/02/04 06:46:26;;;;;;;32.17;18.20;;;;;;;4.75;83.87;100544.07;1614807;87;22460;-87
2022/02/04 06:48:52;;;;;;;29.00;16.85;;;;;;;4.80;83.89;100551.70;1609837;88;21009;-85
2022/02/04 06:51:19;;;;;;;23.98;14.80;;;;;;;4.84;83.93;100554.92;1608172;87;21050;-85
2022/02/04 06:53:46;;;;;;;24.43;14.25;;;;;;;4.85;83.97;100544.56;1603026;89;21056;-86
2022/02/04 06:56:12;;;;;;;17.25;12.13;;;;;;;4.90;84.06;100546.09;1610212;89;21055;-86
2022/02/04 06:58:39;;;;;;;22.13;13.58;;;;;;;4.96;84.11;100545.05;1601488;89;21762;-86
2022/02/04 07:01:06;;;;;;;20.75;12.98;;;;;;;5.01;84.10;100541.33;1610001;89;21485;-86
2022/02/04 07:03:33;;;;;;;20.92;13.98;;;;;;;5.05;84.16;100533.72;1610263;89;21039;-85
2022/02/04 07:06:02;;;;;;;23.80;14.75;;;;;;;5.12;84.14;100538.77;1580710;89;21080;-86
2022/02/04 07:08:40;;;;;;;22.10;15.45;;;;;;;5.17;84.15;100534.66;1605180;89;21040;-86
2022/02/04 07:21:22;;;;;;;27.85;17.75;;;;;;;5.36;84.06;100548.07;1648320;85;21002;-85
2022/02/04 07:23:49;;;;;;;25.92;18.92;;;;;;;5.40;84.00;100559.54;1648312;85;22558;-86
2022/02/04 07:26:15;;;;;;;29.52;21.80;;;;;;;5.43;84.07;100557.95;1648230;85;21015;-86
2022/02/04 07:28:42;;;;;;;24.10;17.55;;;;;;;5.48;84.02;100565.08;1689509;83;20979;-86
2022/02/04 07:31:09;;;;;;;26.50;16.55;;;;;;;5.50;83.98;100560.81;1749817;81;21006;-86
2022/02/04 07:33:43;;;;;;;24.05;16.73;;;;;;;5.53;83.98;100561.84;1753283;80;21476;-86
2022/02/04 07:40:52;;;;;;;25.60;17.25;;;;;;;5.59;84.01;100555.59;1746511;82;20994;-86
2022/02/04 07:41:19;;;;;;;19.30;12.60;;;;;;;5.63;84.02;100550.97;1750791;80;21465;-85
2022/02/04 07:43:46;;;;;;;17.98;13.45;;;;;;;5.71;84.03;100547.79;1746253;80;21344;-83
2022/02/04 07:46:13;;;;;;;17.87;13.28;;;;;;;5.74;84.01;100552.70;1713044;83;22018;-83
2022/02/04 07:48:40;;;;;;;13.60;11.43;;;;;;;5.76;83.91;100548.45;1713037;83;22568;-84
2022/02/04 07:51:07;;;;;;;43.00;29.42;;;;;;;5.78;83.96;100541.58;1712942;83;20979;-84
2022/02/04 07:53:34;;;;;;;31.95;22.55;;;;;;;5.82;83.90;100542.59;1712995;83;21003;-83
2022/02/04 07:56:01;;;;;;;16.87;12.25;;;;;;;5.87;83.93;100537.11;1712926;83;21184;-84
2022/02/04 07:58:28;;;;;;;19.45;13.62;;;;;;;5.94;83.99;100537.84;1712968;83;21469;-83
2022/02/04 08:00:55;;;;;;;19.92;13.95;;;;;;;6.00;83.90;100535.92;1712928;83;21718;-83
2022/02/04 08:03:40;;;;;;;16.05;11.30;;;;;;;6.05;83.93;100529.59;1712844;83;21058;-84
2022/02/04 08:06:10;;;;;;;13.85;9.95;;;;;;;6.14;84.02;100537.38;1714314;81;20988;-83
2022/02/04 08:14:07;;;;;;;20.08;13.15;;;;;;;6.41;83.95;100539.27;1712956;82;22554;-86
2022/02/04 08:22:13;;;;;;;24.27;16.15;;;;;;;6.72;83.68;100532.56;1712878;82;21023;-86
2022/02/04 08:24:38;;;;;;;22.35;16.10;;;;;;;6.76;83.50;100528.83;1717433;81;21517;-85
2022/02/04 08:32:39;;;;;;;19.45;12.37;;;;;;;7.05;83.35;100536.84;1712987;82;21583;-84
2022/02/04 08:35:12;;;;;;;19.52;12.25;;;;;;;7.06;83.21;100529.86;1716490;81;21509;-84
2022/02/04 08:49:00;;;;;;;14.95;9.08;;;;;;;7.27;82.99;100520.16;1731596;82;21456;-83
2022/02/04 08:54:01;;;;;;;13.72;9.25;;;;;;;7.21;82.62;100526.51;1749480;82;22561;-83
2022/02/04 08:56:22;;;;;;;14.33;9.63;;;;;;;7.16;82.51;100523.70;1747513;81;20964;-83
2022/02/04 08:58:54;;;;;;;12.60;8.73;;;;;;;7.07;82.39;100527.31;1749052;80;20995;-83
2022/02/04 09:01:22;;;;;;;12.70;9.35;;;;;;;6.99;82.33;100532.70;1748651;81;21433;-83
2022/02/04 09:06:15;;;;;;;20.90;13.13;;;;;;;6.92;82.56;100530.27;1721551;82;21673;-83
2022/02/04 09:08:43;;;;;;;17.25;12.43;;;;;;;6.93;82.62;100528.56;1749978;79;20982;-83
2022/02/04 09:11:12;;;;;;;15.85;12.10;;;;;;;6.93;82.60;100526.83;1749505;81;20980;-83
2022/02/04 09:19:13;;;;;;;12.40;8.68;;;;;;;6.91;82.54;100525.89;1749408;81;21720;-83
2022/02/04 09:24:09;;;;;;;14.07;8.05;;;;;;;6.99;82.63;100523.11;1731808;82;21036;-83
2022/02/04 09:26:36;;;;;;;14.40;9.13;;;;;;;7.05;82.65;100525.48;1721547;83;21011;-83
2022/02/04 09:29:03;;;;;;;13.45;7.80;;;;;;;7.09;82.62;100517.78;1749445;81;21905;-84
2022/02/04 09:31:29;;;;;;;14.20;8.95;;;;;;;7.15;82.60;100522.34;1721387;83;22599;-83
2022/02/04 09:33:56;;;;;;;10.82;8.68;;;;;;;7.14;82.41;100523.20;1749433;81;20959;-83
2022/02/04 09:36:23;;;;;;;13.65;8.90;;;;;;;7.15;82.42;100519.33;1721206;83;21006;-86
2022/02/04 09:38:49;;;;;;;12.60;8.78;;;;;;;7.16;82.37;100516.28;1749307;81;20991;-86
2022/02/04 09:41:20;;;;;;;10.82;8.38;;;;;;;7.19;82.42;100508.13;1721286;83;21186;-86
2022/02/04 09:43:48;;;;;;;11.65;8.28;;;;;;;7.25;82.43;100509.18;1721983;80;21176;-84
2022/02/04 09:46:15;;;;;;;10.70;7.97;;;;;;;7.32;82.46;100510.75;1725929;82;20975;-84
2022/02/04 09:48:44;;;;;;;17.40;10.20;;;;;;;7.35;82.26;100505.59;1726092;81;20987;-84
2022/02/04 09:51:13;;;;;;;13.85;10.45;;;;;;;7.33;82.07;100502.04;1726184;80;20994;-84
2022/02/04 10:10:45;;;;;;;22.87;16.95;;;;;;;7.53;82.04;100480.89;1726062;81;22997;-84
2022/02/04 10:15:44;;;;;;;17.73;12.13;;;;;;;7.61;81.91;100476.77;1726138;81;20995;-83
2022/02/04 10:18:10;;;;;;;12.90;10.28;;;;;;;7.64;81.83;100472.95;1728088;80;21166;-85
2022/02/04 10:20:38;;;;;;;12.80;9.80;;;;;;;7.71;81.84;100468.78;1716438;82;21469;-84
2022/02/04 10:23:04;;;;;;;14.87;11.88;;;;;;;7.78;81.75;100469.45;1726000;82;21731;-85
2022/02/04 10:25:40;;;;;;;14.78;11.78;;;;;;;7.85;81.67;100470.13;1726091;82;21019;-86
2022/02/04 10:28:22;;;;;;;14.83;13.20;;;;;;;7.90;81.55;100466.32;1726022;81;21019;-86
2022/02/04 10:31:10;;;;;;;14.07;11.38;;;;;;;7.92;81.40;100459.39;1692859;83;21460;-83
2022/02/04 10:34:04;;;;;;;14.07;11.38;;;;;;;7.98;81.38;100460.92;1720844;82;21452;-86
2022/02/04 10:36:50;;;;;;;16.63;13.33;;;;;;;8.02;81.23;100452.73;1726401;80;22514;-86
2022/02/04 10:40:01;;;;;;;16.48;13.60;;;;;;;8.04;81.18;100451.92;1727435;80;21457;-86
2022/02/04 10:47:37;;;;;;;23.52;16.93;;;;;;;8.25;81.15;100433.75;1731547;82;21034;-83
2022/02/04 10:50:14;;;;;;;16.23;13.88;;;;;;;8.28;81.02;100428.60;1757856;79;21730;-84
2022/02/04 10:55:45;;;;;;;38.08;31.30;;;;;;;8.30;80.86;100432.16;1723399;81;21563;-86
2022/02/04 10:58:12;;;;;;;35.17;26.70;;;;;;;8.33;80.83;100434.84;1752885;80;21051;-88
2022/02/04 11:00:39;;;;;;;22.98;19.55;;;;;;;8.34;80.69;100429.65;1753747;80;20983;-86
2022/02/04 11:02:58;;;;;;;20.82;13.78;;;;;;;8.42;80.76;100436.45;1752926;80;22270;-85
2022/02/04 11:05:31;;;;;;;18.23;14.85;;;;;;;8.43;80.55;100433.00;1748813;80;20955;-85
2022/02/04 11:11:07;;;;;;;25.48;22.77;;;;;;;8.46;80.48;100429.13;1721450;82;20975;-82
2022/02/04 11:33:03;;;;;;;30.95;27.80;;;;;;;8.49;79.92;100399.50;1721340;82;21139;-85
2022/02/04 11:35:20;;;;;;;26.82;23.98;;;;;;;8.56;79.95;100404.95;1754236;79;21629;-86
2022/02/04 11:52:34;;;;;;;20.27;17.12;;;;;;;8.81;79.33;100385.93;1712837;83;21464;-85
2022/02/04 11:55:12;;;;;;;21.05;17.23;;;;;;;8.76;79.09;100383.60;1713541;81;21451;-85
2022/02/04 11:57:58;;;;;;;20.55;17.00;;;;;;;8.77;79.03;100386.70;1712841;83;21823;-85
2022/02/04 12:00:32;;;;;;;21.93;17.27;;;;;;;8.77;79.01;100388.02;1712822;83;21014;-85
2022/02/04 12:02:59;;;;;;;20.35;16.02;;;;;;;8.74;78.85;100392.73;1713015;82;21007;-85
2022/02/04 12:05:27;;;;;;;20.62;15.88;;;;;;;8.70;78.84;100379.08;1712826;83;21138;-85
2022/02/04 12:08:17;;;;;;;19.85;16.90;;;;;;;8.70;78.79;100379.08;1712649;83;36326;-85
2022/02/04 12:10:50;;;;;;;18.87;16.15;;;;;;;8.68;78.78;100376.84;1702770;83;22786;-83
2022/02/04 12:13:18;;;;;;;18.73;16.05;;;;;;;8.66;78.73;100370.67;1712879;83;21070;-82
2022/02/04 12:15:48;;;;;;;95.83;59.30;;;;;;;8.61;78.57;100357.84;1712903;82;21431;-82
2022/02/04 12:18:20;;;;;;;169.02;99.05;;;;;;;8.55;78.59;100361.19;1712822;83;21480;-82
2022/02/04 12:20:55;;;;;;;115.82;90.20;;;;;;;8.54;78.67;100353.30;1712887;83;21019;-83
2022/02/04 12:23:38;;;;;;;34.27;28.52;;;;;;;8.50;78.54;100356.67;1712779;82;21712;-83
2022/02/04 12:26:19;;;;;;;31.68;26.65;;;;;;;8.41;78.44;100360.31;1712894;81;20980;-83
2022/02/04 12:29:13;;;;;;;31.07;26.40;;;;;;;8.32;78.48;100351.36;1713052;83;21520;-83
2022/02/04 12:31:32;;;;;;;25.00;21.42;;;;;;;8.21;78.51;100346.24;1713096;81;21051;-83
2022/02/04 12:34:21;;;;;;;21.12;17.92;;;;;;;8.14;78.55;100337.73;1712938;82;21035;-84
2022/02/04 12:36:42;;;;;;;20.43;16.90;;;;;;;8.13;78.73;100347.34;1713793;81;22744;-82
2022/02/04 12:39:17;;;;;;;26.27;18.95;;;;;;;8.12;78.71;100349.91;1712834;83;21441;-82
2022/02/04 12:41:51;;;;;;;22.62;19.15;;;;;;;8.13;78.85;100343.84;1712858;82;21000;-82
2022/02/04 12:44:28;;;;;;;25.40;19.50;;;;;;;8.14;78.85;100337.30;1718603;83;21102;-82
2022/02/04 12:47:06;;;;;;;22.22;18.85;;;;;;;8.14;78.75;100335.11;1742028;81;21019;-82
2022/02/04 12:49:35;;;;;;;22.90;18.60;;;;;;;8.12;78.73;100336.38;1735216;81;21748;-83
2022/02/04 12:54:47;;;;;;;23.00;18.77;;;;;;;8.13;78.80;100334.66;1749410;82;21057;-82
2022/02/04 13:00:19;;;;;;;22.60;18.20;;;;;;;8.16;78.83;100329.09;1720861;81;20983;-83
2022/02/04 13:08:23;;;;;;;44.48;34.00;;;;;;;8.07;78.56;100316.12;1749385;81;20995;-82
2022/02/04 13:11:01;;;;;;;45.30;34.18;;;;;;;8.03;78.65;100306.40;1749968;80;21007;-82
2022/02/04 13:13:33;;;;;;;44.53;34.03;;;;;;;8.04;78.65;100308.19;1747960;81;21014;-82
2022/02/04 13:15:57;;;;;;;56.90;40.05;;;;;;;8.03;78.59;100305.09;1749984;80;22553;-82
2022/02/04 13:18:23;;;;;;;34.73;26.20;;;;;;;8.02;78.64;100294.16;1749283;82;21006;-82
2022/02/04 13:20:50;;;;;;;36.23;26.68;;;;;;;8.06;78.71;100294.70;1721481;83;20967;-82
2022/02/04 13:23:21;;;;;;;29.40;24.50;;;;;;;8.05;78.60;100291.59;1749280;82;21491;-82
2022/02/04 13:25:49;;;;;;;35.92;25.97;;;;;;;8.03;78.56;100292.86;1721398;82;21007;-82
2022/02/04 13:28:29;;;;;;;28.27;22.22;;;;;;;8.06;78.62;100292.95;1781097;79;22563;-82
2022/02/04 13:31:02;;;;;;;23.30;19.90;;;;;;;8.05;78.56;100290.28;1749658;82;20956;-82
2022/02/04 13:33:44;;;;;;;19.90;17.35;;;;;;;8.06;78.61;100289.02;1721626;83;20983;-83
2022/02/04 13:47:06;;;;;;;27.48;20.23;;;;;;;8.07;78.72;100274.17;1752023;81;20999;-83
2022/02/04 13:52:19;;;;;;;28.17;22.60;;;;;;;8.01;78.69;100272.27;1746654;82;20999;-83
2022/02/04 13:54:55;;;;;;;32.00;21.65;;;;;;;8.00;78.76;100274.88;1747600;80;23028;-83
2022/02/04 13:57:28;;;;;;;29.60;22.10;;;;;;;8.01;78.83;100272.70;1749542;80;21050;-83
2022/02/04 14:02:51;;;;;;;30.82;22.77;;;;;;;8.00;78.78;100266.59;1746560;82;21484;-83
2022/02/04 14:05:14;;;;;;;35.38;23.42;;;;;;;8.01;78.91;100258.30;1747204;80;21015;-83
2022/02/04 14:07:48;;;;;;;28.45;21.10;;;;;;;7.97;78.81;100258.20;1687970;84;21727;-83
2022/02/04 14:10:28;;;;;;;27.25;20.50;;;;;;;7.91;78.72;100251.48;1754108;80;21559;-83
2022/02/04 14:13:07;;;;;;;29.20;20.62;;;;;;;7.89;78.90;100257.11;1752962;80;21010;-83
2022/02/04 14:15:36;;;;;;;31.33;23.15;;;;;;;7.88;78.90;100257.97;1711811;83;21248;-83
2022/02/04 14:18:09;;;;;;;32.80;25.97;;;;;;;7.87;78.97;100250.06;1752050;81;21509;-83
2022/02/04 14:20:34;;;;;;;38.30;29.30;;;;;;;7.86;79.02;100249.58;1713252;81;21783;-83
2022/02/04 14:23:01;;;;;;;36.20;25.90;;;;;;;7.83;78.90;100245.55;1712962;83;20967;-83
2022/02/04 14:25:27;;;;;;;57.08;36.53;;;;;;;7.77;78.86;100244.56;1713061;83;21022;-83
2022/02/04 14:27:58;;;;;;;109.27;64.65;;;;;;;7.73;78.87;100243.10;1713099;82;21007;-84
2022/02/04 14:30:29;;;;;;;53.42;37.55;;;;;;;7.69;78.88;100240.81;1713564;81;21019;-82
2022/02/04 14:33:12;;;;;;;40.40;30.08;;;;;;;7.66;78.89;100241.14;1714403;81;21701;-83
2022/02/04 14:51:59;;;;;;;35.17;25.32;;;;;;;7.45;79.13;100242.34;1640085;87;21547;-83
2022/02/04 15:02:05;;;;;;;32.25;22.55;;;;;;;7.31;79.20;100227.50;1720066;82;21051;-83
2022/02/04 15:04:42;;;;;;;32.93;22.82;;;;;;;7.29;79.26;100224.39;1713073;80;21009;-84
2022/02/04 15:07:05;;;;;;;36.90;23.07;;;;;;;7.26;79.30;100226.47;1688398;83;21239;-82
2022/02/04 15:09:33;;;;;;;36.93;23.95;;;;;;;7.22;79.32;100225.92;1688632;84;21074;-83
2022/02/04 15:12:00;;;;;;;39.95;26.70;;;;;;;7.17;79.35;100225.80;1689094;83;21865;-83
2022/02/04 15:14:26;;;;;;;38.30;25.15;;;;;;;7.14;79.46;100220.89;1689112;84;21066;-83
2022/02/04 15:16:53;;;;;;;41.23;26.70;;;;;;;7.13;79.57;100217.79;1710367;82;21028;-83
2022/02/04 15:19:20;;;;;;;40.88;26.07;;;;;;;7.12;79.60;100217.34;1713099;83;21506;-82
2022/02/04 15:21:51;;;;;;;36.63;25.27;;;;;;;7.09;79.55;100222.03;1727540;83;21115;-82
2022/02/04 15:24:18;;;;;;;41.00;25.05;;;;;;;7.08;79.61;100220.71;1727646;82;21668;-82
2022/02/04 15:26:44;;;;;;;38.70;23.57;;;;;;;7.07;79.64;100214.56;1727533;83;21411;-81
2022/02/04 15:29:17;;;;;;;39.67;25.10;;;;;;;7.08;79.74;100208.94;1727563;82;20985;-82
2022/02/04 15:31:53;;;;;;;39.40;25.82;;;;;;;7.06;79.72;100206.66;1727355;82;21186;-82
2022/02/04 15:34:17;;;;;;;38.13;24.63;;;;;;;7.05;79.68;100206.20;1727058;81;21014;-82
2022/02/04 15:36:46;;;;;;;46.95;28.62;;;;;;;7.03;79.71;100202.66;1727439;83;21746;-81
2022/02/04 15:39:15;;;;;;;39.03;25.72;;;;;;;7.02;79.75;100205.70;1727451;82;20994;-84
2022/02/04 15:41:42;;;;;;;39.67;26.37;;;;;;;6.98;79.71;100203.41;1727625;83;21474;-82
2022/02/04 15:44:37;;;;;;;34.40;23.87;;;;;;;6.96;79.73;100205.10;1717001;83;21031;-86
2022/02/04 15:54:58;;;;;;;47.75;29.48;;;;;;;6.90;79.90;100191.80;1694684;84;21005;-83
2022/02/04 16:00:16;;;;;;;34.40;24.27;;;;;;;6.85;79.90;100193.81;1689235;84;21036;-82
2022/02/04 16:04:54;;;;;;;31.30;22.13;;;;;;;6.81;79.87;100183.67;1690042;83;21044;-82
2022/02/04 16:07:23;;;;;;;28.52;20.35;;;;;;;6.77;79.91;100185.73;1690103;84;21015;-83
2022/02/04 16:09:59;;;;;;;31.80;21.80;;;;;;;6.76;79.95;100183.55;1690194;84;21445;-84
2022/02/04 16:12:24;;;;;;;31.77;20.40;;;;;;;6.78;80.03;100184.91;1733619;82;21005;-82
2022/02/04 16:14:58;;;;;;;27.40;21.12;;;;;;;6.78;80.03;100187.09;1732788;82;21742;-83
2022/02/04 16:17:34;;;;;;;27.93;21.02;;;;;;;6.78;79.97;100184.91;1730798;82;21482;-81
2022/02/04 16:22:58;;;;;;;30.75;20.12;;;;;;;6.75;80.03;100171.72;1733269;82;21333;-86
2022/02/04 16:25:19;;;;;;;30.08;21.23;;;;;;;6.72;79.97;100175.14;1731501;82;20998;-82
2022/02/04 16:30:07;;;;;;;30.00;21.15;;;;;;;6.63;79.98;100157.85;1733763;82;20966;-85
2022/02/04 16:32:34;;;;;;;33.60;22.35;;;;;;;6.60;80.07;100156.00;1734065;82;21028;-85
2022/02/04 16:35:04;;;;;;;30.88;22.20;;;;;;;6.57;80.02;100153.75;1733662;82;21431;-84
2022/02/04 16:37:37;;;;;;;33.83;22.70;;;;;;;6.52;80.11;100147.47;1733145;82;21020;-83
2022/02/04 16:40:12;;;;;;;32.13;23.32;;;;;;;6.50;80.16;100142.63;1733491;81;21786;-83
2022/02/04 16:42:38;;;;;;;37.50;23.80;;;;;;;6.49;80.23;100149.98;1733473;82;21040;-84
2022/02/04 16:45:06;;;;;;;35.75;25.25;;;;;;;6.46;80.25;100142.03;1740442;81;21459;-83
2022/02/04 16:47:33;;;;;;;37.93;27.00;;;;;;;6.43;80.31;100141.52;1723673;82;21081;-83
2022/02/04 16:50:01;;;;;;;41.18;26.97;;;;;;;6.39;80.35;100137.92;1749730;81;21059;-85
2022/02/04 16:52:30;;;;;;;41.60;28.32;;;;;;;6.36;80.44;100131.70;1749373;82;21845;-85
2022/02/04 16:54:58;;;;;;;42.17;29.18;;;;;;;6.35;80.51;100132.13;1749010;80;21548;-83
2022/02/04 16:57:25;;;;;;;44.48;28.90;;;;;;;6.35;80.55;100139.97;1749156;82;21618;-85
2022/02/04 16:59:53;;;;;;;44.85;30.77;;;;;;;6.36;80.70;100133.02;1749507;82;20996;-83
2022/02/04 17:02:20;;;;;;;47.35;32.42;;;;;;;6.36;80.67;100132.62;1749638;82;21217;-84
2022/02/04 17:04:47;;;;;;;42.27;29.42;;;;;;;6.36;80.72;100126.08;1749962;82;21726;-85
2022/02/04 17:07:20;;;;;;;41.83;28.83;;;;;;;6.37;80.70;100127.84;1749777;82;21006;-84
2022/02/04 17:09:47;;;;;;;42.75;27.75;;;;;;;6.36;80.67;100126.08;1748908;81;20976;-83
2022/02/04 17:12:12;;;;;;;50.00;34.70;;;;;;;6.34;80.68;100117.70;1748953;80;21185;-83
2022/02/04 17:14:38;;;;;;;39.75;28.32;;;;;;;6.33;80.65;100127.70;1747534;80;21045;-83
2022/02/04 17:17:07;;;;;;;40.95;27.52;;;;;;;6.33;80.69;100122.05;1746428;81;21721;-85
2022/02/04 17:19:48;;;;;;;35.03;26.65;;;;;;;6.32;80.69;100124.18;1741196;82;21062;-82
2022/02/04 17:22:10;;;;;;;38.13;26.85;;;;;;;6.31;80.63;100120.23;1739107;81;21424;-84
2022/02/04 17:24:36;;;;;;;34.30;26.05;;;;;;;6.31;80.69;100113.27;1740716;82;20972;-86